Time;durP1;ratioP1;P1;durP2;ratioP2;P2;SDS_P1;SDS_P2;PMS_P1;PMS_P2;Temp;Humidity;BMP_temperature;BMP_pressure;BME280_temperature;BME280_humidity;BME280_pressure;Samples;Min_cycle;Max_cycle;Signal;HPM_P1;HPM_P2
2023/04/24 00:00:20;;;;;;;3.10;2.90;;;10.20;99.90;;;;;;5071887;28;20039;-86
2023/04/24 00:02:46;;;;;;;3.35;3.05;;;10.20;99.90;;;;;;5043312;28;20071;-86
2023/04/24 00:05:13;;;;;;;4.03;3.70;;;10.10;99.90;;;;;;5048025;28;20397;-86
2023/04/24 00:07:40;;;;;;;3.63;3.33;;;10.10;99.90;;;;;;5059767;28;20086;-87
2023/04/24 00:10:06;;;;;;;4.13;3.72;;;10.10;99.90;;;;;;5047338;28;20457;-87
2023/04/24 00:12:32;;;;;;;4.88;4.28;;;10.10;99.90;;;;;;5052325;28;20028;-86
2023/04/24 00:14:58;;;;;;;4.18;3.88;;;10.10;99.90;;;;;;5061320;28;20086;-87
2023/04/24 00:17:23;;;;;;;4.72;4.32;;;10.00;99.90;;;;;;5058507;28;20048;-86
2023/04/24 00:19:51;;;;;;;4.97;4.53;;;10.10;99.90;;;;;;5049783;28;20058;-87
2023/04/24 00:22:17;;;;;;;4.75;4.35;;;10.10;99.90;;;;;;5069642;28;20119;-86
2023/04/24 00:24:43;;;;;;;4.72;4.32;;;10.10;99.90;;;;;;5061622;28;20036;-86
2023/04/24 00:27:08;;;;;;;4.47;4.07;;;10.10;99.90;;;;;;5063498;28;20048;-87
2023/04/24 00:29:34;;;;;;;4.53;4.13;;;10.10;99.90;;;;;;5042539;28;20438;-87
2023/04/24 00:32:00;;;;;;;4.40;4.00;;;10.00;99.90;;;;;;5046963;28;20488;-87
2023/04/24 00:34:25;;;;;;;4.03;3.70;;;10.10;99.90;;;;;;5052602;28;20036;-87
2023/04/24 00:36:52;;;;;;;3.80;3.50;;;10.10;99.90;;;;;;5054588;28;20484;-86
2023/04/24 00:39:21;;;;;;;4.15;3.70;;;10.10;99.90;;;;;;5060039;28;20044;-86
2023/04/24 00:41:47;;;;;;;3.00;2.80;;;10.10;99.90;;;;;;5050792;28;20031;-87
2023/04/24 00:44:14;;;;;;;3.10;2.90;;;10.10;99.90;;;;;;5072155;28;20051;-87
2023/04/24 00:46:40;;;;;;;2.80;2.60;;;10.10;99.90;;;;;;5061339;28;20042;-87
2023/04/24 00:49:08;;;;;;;2.85;2.65;;;10.20;99.90;;;;;;5069270;28;20036;-87
2023/04/24 00:51:34;;;;;;;2.03;1.92;;;10.10;99.90;;;;;;5044821;28;20124;-86
2023/04/24 00:54:00;;;;;;;2.70;2.50;;;10.00;99.90;;;;;;5044892;28;20115;-85
2023/04/24 00:56:27;;;;;;;2.90;2.70;;;9.90;99.90;;;;;;5070869;28;20040;-85
2023/04/24 00:58:53;;;;;;;3.10;2.90;;;9.90;99.90;;;;;;5063243;28;20128;-86
2023/04/24 01:01:22;;;;;;;3.20;2.92;;;9.80;99.90;;;;;;5061434;28;20115;-86
2023/04/24 01:03:50;;;;;;;2.85;2.60;;;9.90;99.90;;;;;;5059457;28;20094;-84
2023/04/24 01:06:16;;;;;;;3.03;2.72;;;9.80;99.90;;;;;;5062125;28;20032;-88
2023/04/24 01:08:42;;;;;;;3.60;3.30;;;9.90;99.90;;;;;;5047215;28;20054;-86
2023/04/24 01:11:07;;;;;;;3.60;3.30;;;9.80;99.90;;;;;;5072834;28;20097;-86
2023/04/24 01:13:34;;;;;;;3.58;3.28;;;9.80;99.90;;;;;;5045807;28;20078;-86
2023/04/24 01:16:00;;;;;;;3.72;3.35;;;9.80;99.90;;;;;;5049070;28;20051;-86
2023/04/24 01:18:27;;;;;;;3.90;3.60;;;9.80;99.90;;;;;;5045144;28;20064;-86
2023/04/24 01:20:56;;;;;;;3.58;3.38;;;9.70;99.90;;;;;;5057744;28;20037;-86
2023/04/24 01:23:22;;;;;;;3.78;3.47;;;9.70;99.90;;;;;;5054112;28;20744;-86
2023/04/24 01:25:49;;;;;;;4.10;3.80;;;9.70;99.90;;;;;;5047454;28;20120;-86
2023/04/24 01:28:15;;;;;;;4.40;4.00;;;9.70;99.90;;;;;;5068756;28;20040;-86
2023/04/24 01:30:41;;;;;;;4.15;3.85;;;9.70;99.90;;;;;;5051302;28;20036;-87
2023/04/24 01:33:07;;;;;;;4.53;3.92;;;9.70;99.90;;;;;;5056784;28;20032;-87
2023/04/24 01:35:32;;;;;;;4.15;3.85;;;9.60;99.90;;;;;;5040205;28;20128;-87
2023/04/24 01:37:58;;;;;;;5.13;4.22;;;9.70;99.90;;;;;;5045541;28;20493;-87
2023/04/24 01:40:24;;;;;;;4.28;3.97;;;9.60;99.90;;;;;;5048608;28;20089;-87
2023/04/24 01:42:50;;;;;;;4.70;4.30;;;9.60;99.90;;;;;;5062588;28;20581;-87
2023/04/24 01:45:15;;;;;;;5.10;4.60;;;9.60;99.90;;;;;;5054235;28;20040;-86
2023/04/24 01:47:41;;;;;;;5.03;4.50;;;9.60;99.90;;;;;;5065372;28;20104;-86
2023/04/24 01:50:08;;;;;;;4.57;4.18;;;9.50;99.90;;;;;;5060775;28;20033;-87
2023/04/24 01:52:37;;;;;;;4.72;4.32;;;9.50;99.90;;;;;;5048343;28;20051;-86
2023/04/24 01:55:04;;;;;;;5.35;4.63;;;9.50;99.90;;;;;;5064534;28;20139;-87
2023/04/24 01:57:31;;;;;;;5.30;4.80;;;9.50;99.90;;;;;;5060401;28;20382;-87
2023/04/24 01:59:57;;;;;;;5.90;5.40;;;9.50;99.90;;;;;;5044353;28;20032;-86
2023/04/24 02:02:23;;;;;;;6.40;5.60;;;9.40;99.90;;;;;;5043721;28;20036;-86
2023/04/24 02:04:50;;;;;;;6.97;6.15;;;9.50;99.90;;;;;;5072199;28;20040;-87
2023/04/24 02:07:16;;;;;;;6.03;5.47;;;9.50;99.90;;;;;;5046645;28;20055;-86
2023/04/24 02:09:41;;;;;;;6.70;5.97;;;9.50;99.90;;;;;;5071065;28;20495;-86
2023/04/24 02:12:07;;;;;;;7.35;6.40;;;9.50;99.90;;;;;;5049956;28;20036;-87
2023/04/24 02:14:33;;;;;;;7.00;6.30;;;9.40;99.90;;;;;;5052384;28;20032;-87
2023/04/24 02:16:58;;;;;;;7.97;7.18;;;9.40;99.90;;;;;;5059757;28;20036;-87
2023/04/24 02:19:24;;;;;;;8.88;7.10;;;9.40;99.90;;;;;;5045870;28;20447;-87
2023/04/24 02:21:50;;;;;;;7.35;6.65;;;9.50;99.90;;;;;;5058799;28;20037;-85
2023/04/24 02:24:16;;;;;;;7.97;6.88;;;9.50;99.90;;;;;;5057563;28;20036;-86
2023/04/24 02:26:41;;;;;;;8.07;7.28;;;9.80;99.90;;;;;;5050107;28;20115;-86
2023/04/24 02:29:07;;;;;;;7.78;6.97;;;9.50;99.90;;;;;;5049062;28;20169;-86
2023/04/24 02:31:33;;;;;;;8.52;7.63;;;9.50;99.90;;;;;;5065437;28;20070;-86
2023/04/24 02:33:59;;;;;;;11.10;7.80;;;9.50;99.90;;;;;;5046668;28;20137;-84
2023/04/24 02:36:25;;;;;;;8.52;7.65;;;9.50;99.90;;;;;;5048990;28;20532;-85
2023/04/24 02:38:50;;;;;;;8.90;7.25;;;9.50;99.90;;;;;;5065596;28;20040;-83
2023/04/24 02:41:16;;;;;;;7.88;7.18;;;9.50;99.90;;;;;;5051031;28;20036;-85
2023/04/24 02:43:42;;;;;;;8.15;7.35;;;9.50;99.90;;;;;;5049011;28;20028;-85
2023/04/24 02:46:07;;;;;;;8.95;7.35;;;9.60;99.90;;;;;;5070635;28;20039;-86
2023/04/24 02:48:33;;;;;;;8.32;7.53;;;9.50;99.90;;;;;;5052221;28;20036;-84
2023/04/24 02:50:58;;;;;;;8.27;7.47;;;9.40;99.90;;;;;;5050284;28;20047;-84
2023/04/24 02:53:24;;;;;;;8.45;7.65;;;9.40;99.90;;;;;;5069910;28;20036;-86
2023/04/24 02:55:49;;;;;;;7.90;7.20;;;9.40;99.90;;;;;;5046191;28;20041;-84
2023/04/24 02:58:15;;;;;;;8.65;7.72;;;9.40;99.90;;;;;;5070703;28;20098;-84
2023/04/24 03:00:41;;;;;;;9.00;8.05;;;9.40;99.90;;;;;;5042517;28;20404;-82
2023/04/24 03:03:07;;;;;;;7.63;6.93;;;9.40;99.90;;;;;;5047001;28;20076;-83
2023/04/24 03:05:32;;;;;;;7.78;6.85;;;9.30;99.90;;;;;;5048790;28;20094;-84
2023/04/24 03:07:58;;;;;;;7.93;7.13;;;9.30;99.90;;;;;;5065074;28;20049;-83
2023/04/24 03:10:24;;;;;;;7.30;6.60;;;9.30;99.90;;;;;;5055962;28;20071;-84
2023/04/24 03:12:49;;;;;;;7.47;6.88;;;9.30;99.90;;;;;;5076092;28;20579;-83
2023/04/24 03:15:15;;;;;;;6.47;5.88;;;9.30;99.90;;;;;;5063687;28;20115;-85
2023/04/24 03:17:41;;;;;;;7.32;6.60;;;9.30;99.90;;;;;;5046630;28;20108;-84
2023/04/24 03:20:10;;;;;;;7.43;6.72;;;9.30;99.90;;;;;;5041970;28;20058;-84
2023/04/24 03:22:36;;;;;;;7.72;6.70;;;9.30;99.90;;;;;;5056740;28;20395;-84
2023/04/24 03:25:02;;;;;;;7.43;6.65;;;9.30;99.90;;;;;;5060152;28;20099;-82
2023/04/24 03:27:27;;;;;;;7.38;6.70;;;9.30;99.90;;;;;;5065139;28;20512;-83
2023/04/24 03:29:55;;;;;;;7.75;6.50;;;9.20;99.90;;;;;;5053504;28;20106;-82
2023/04/24 03:32:22;;;;;;;7.95;7.15;;;9.30;99.90;;;;;;5063731;28;20105;-84
2023/04/24 03:34:50;;;;;;;8.55;7.45;;;9.30;99.90;;;;;;5050392;28;20686;-84
2023/04/24 03:37:16;;;;;;;8.32;7.53;;;9.30;99.90;;;;;;5059432;28;20630;-84
2023/04/24 03:39:42;;;;;;;8.45;7.60;;;9.30;99.90;;;;;;5046713;28;20048;-83
2023/04/24 03:42:08;;;;;;;9.18;8.27;;;9.30;99.90;;;;;;5071354;28;20071;-82
2023/04/24 03:44:34;;;;;;;9.43;7.60;;;9.20;99.90;;;;;;5055213;28;20060;-82
2023/04/24 03:47:00;;;;;;;10.05;8.18;;;9.20;99.90;;;;;;5063354;28;20111;-83
2023/04/24 03:49:26;;;;;;;9.95;8.02;;;9.20;99.90;;;;;;5065756;28;20124;-83
2023/04/24 03:51:52;;;;;;;10.13;8.25;;;9.20;99.90;;;;;;5058677;28;20122;-84
2023/04/24 03:54:19;;;;;;;9.45;8.52;;;9.20;99.90;;;;;;5065757;28;20040;-86
2023/04/24 03:56:44;;;;;;;8.80;7.90;;;9.20;99.90;;;;;;5054943;28;20111;-83
2023/04/24 03:59:10;;;;;;;10.13;8.75;;;9.30;99.90;;;;;;5043811;28;20119;-84
2023/04/24 04:01:37;;;;;;;8.68;7.78;;;9.20;99.90;;;;;;5048151;28;20036;-84
2023/04/24 04:04:03;;;;;;;10.77;9.27;;;9.30;99.90;;;;;;5044975;28;20043;-84
2023/04/24 04:06:30;;;;;;;9.38;7.93;;;9.30;99.90;;;;;;5045023;28;20499;-84
2023/04/24 04:08:56;;;;;;;9.80;8.80;;;9.30;99.90;;;;;;5069910;28;20044;-84
2023/04/24 04:11:22;;;;;;;8.93;8.02;;;9.20;99.90;;;;;;5044253;28;20036;-84
2023/04/24 04:13:48;;;;;;;10.18;9.02;;;9.20;99.90;;;;;;5053119;28;20025;-84
2023/04/24 04:16:16;;;;;;;11.02;9.38;;;9.20;99.90;;;;;;5064512;28;20082;-84
2023/04/24 04:18:42;;;;;;;10.40;9.30;;;9.20;99.90;;;;;;5054208;28;20439;-83
2023/04/24 04:21:08;;;;;;;10.20;9.13;;;9.20;99.90;;;;;;5044582;28;20044;-84
2023/04/24 04:23:33;;;;;;;12.48;9.68;;;9.20;99.90;;;;;;5063755;28;20063;-84
2023/04/24 04:25:59;;;;;;;9.23;8.15;;;9.30;99.90;;;;;;5044074;28;20119;-84
2023/04/24 04:28:25;;;;;;;10.88;8.63;;;9.20;99.90;;;;;;5043724;28;20093;-84
2023/04/24 04:30:53;;;;;;;11.65;9.10;;;9.20;99.90;;;;;;5038022;28;20469;-84
2023/04/24 04:33:20;;;;;;;10.32;8.93;;;9.20;99.90;;;;;;5058987;28;20036;-84
2023/04/24 04:35:48;;;;;;;9.25;8.10;;;9.20;99.90;;;;;;5064673;28;20526;-84
2023/04/24 04:38:14;;;;;;;8.77;7.88;;;9.20;99.90;;;;;;5061004;28;20036;-84
2023/04/24 04:40:41;;;;;;;9.25;8.23;;;9.20;99.90;;;;;;5043915;28;20036;-84
2023/04/24 04:43:06;;;;;;;9.00;8.10;;;9.20;99.90;;;;;;5057461;28;20032;-84
2023/04/24 04:45:34;;;;;;;9.38;8.15;;;9.20;99.90;;;;;;5048950;28;20055;-84
2023/04/24 04:48:03;;;;;;;9.32;8.32;;;9.20;99.90;;;;;;5057819;28;20119;-84
2023/04/24 04:50:29;;;;;;;9.40;8.38;;;9.20;99.90;;;;;;5068365;28;20032;-85
2023/04/24 04:52:55;;;;;;;8.98;8.00;;;9.20;99.90;;;;;;5043419;28;20507;-84
2023/04/24 04:55:21;;;;;;;9.70;8.65;;;9.20;99.90;;;;;;5067078;28;20040;-84
2023/04/24 04:57:46;;;;;;;10.80;8.18;;;9.20;99.90;;;;;;5055039;28;20032;-84
2023/04/24 05:00:12;;;;;;;10.20;8.98;;;9.20;99.90;;;;;;5070852;28;20036;-83
2023/04/24 05:02:39;;;;;;;9.20;8.20;;;9.20;99.90;;;;;;5045498;28;20404;-83
2023/04/24 05:05:06;;;;;;;10.30;8.32;;;9.20;99.90;;;;;;5040105;28;20044;-84
2023/04/24 05:07:31;;;;;;;10.35;8.38;;;9.20;99.90;;;;;;5061165;28;20040;-85
2023/04/24 05:09:57;;;;;;;8.50;6.90;;;9.20;99.90;;;;;;5045779;28;20123;-84
2023/04/24 05:12:23;;;;;;;9.43;7.63;;;9.20;99.90;;;;;;5046334;28;20040;-82
2023/04/24 05:14:49;;;;;;;8.27;7.38;;;9.20;99.90;;;;;;5036421;28;20481;-84
2023/04/24 05:17:16;;;;;;;8.38;7.25;;;9.20;99.90;;;;;;5060079;28;20044;-85
2023/04/24 05:19:41;;;;;;;8.55;7.40;;;8.70;99.90;;;;;;5054603;28;20044;-83
2023/04/24 05:22:09;;;;;;;8.20;7.10;;;9.20;99.90;;;;;;5042950;28;20048;-87
2023/04/24 05:24:35;;;;;;;7.55;6.75;;;9.20;99.90;;;;;;5048661;28;20090;-82
2023/04/24 05:27:02;;;;;;;7.78;6.20;;;9.20;99.90;;;;;;5038088;28;20067;-86
2023/04/24 05:29:30;;;;;;;7.30;6.50;;;8.80;99.90;;;;;;5054416;28;20036;-85
2023/04/24 05:31:56;;;;;;;7.97;6.65;;;9.20;99.90;;;;;;5041091;28;20051;-85
2023/04/24 05:34:21;;;;;;;7.80;6.60;;;9.10;99.90;;;;;;5042444;28;20397;-84
2023/04/24 05:36:47;;;;;;;8.07;6.50;;;9.20;99.90;;;;;;5048006;28;20031;-84
2023/04/24 05:39:13;;;;;;;5.82;5.22;;;9.10;99.90;;;;;;5063444;28;20353;-87
2023/04/24 05:41:39;;;;;;;7.10;4.78;;;9.20;99.90;;;;;;5056627;28;20032;-86
2023/04/24 05:44:05;;;;;;;5.93;5.32;;;9.10;99.90;;;;;;5064239;28;20415;-82
2023/04/24 05:46:30;;;;;;;5.63;5.05;;;9.20;99.90;;;;;;5043284;28;20036;-81
2023/04/24 05:48:56;;;;;;;6.15;5.45;;;9.10;99.90;;;;;;5068140;28;20403;-81
2023/04/24 05:51:21;;;;;;;6.18;5.57;;;9.20;99.90;;;;;;5059366;28;20037;-82
2023/04/24 05:53:47;;;;;;;5.70;4.88;;;9.20;99.90;;;;;;5059503;28;20032;-81
2023/04/24 05:56:13;;;;;;;4.97;4.47;;;9.20;99.90;;;;;;5062294;28;20059;-83
2023/04/24 05:58:39;;;;;;;5.20;4.70;;;9.40;99.90;;;;;;5058725;28;20035;-83
2023/04/24 06:01:05;;;;;;;5.28;4.32;;;9.20;99.90;;;;;;5071589;28;20419;-82
2023/04/24 06:03:31;;;;;;;6.10;4.75;;;9.30;99.90;;;;;;5042910;28;20123;-82
2023/04/24 06:05:56;;;;;;;5.25;4.47;;;9.20;99.90;;;;;;5063528;28;20377;-81
2023/04/24 06:08:22;;;;;;;5.20;4.28;;;9.20;99.90;;;;;;5038108;28;20044;-81
2023/04/24 06:10:48;;;;;;;5.45;4.25;;;9.20;99.90;;;;;;5050781;28;20032;-83
2023/04/24 06:13:13;;;;;;;5.70;4.82;;;9.20;99.90;;;;;;5053008;28;20051;-83
2023/04/24 06:15:39;;;;;;;6.10;4.15;;;9.20;99.90;;;;;;5057184;28;20523;-82
2023/04/24 06:18:04;;;;;;;5.15;4.63;;;9.20;99.90;;;;;;5071664;28;20381;-81
2023/04/24 06:20:30;;;;;;;5.57;4.00;;;9.20;99.90;;;;;;5063990;28;20043;-79
2023/04/24 06:22:56;;;;;;;5.03;4.47;;;9.20;99.90;;;;;;5062527;28;20036;-82
2023/04/24 06:25:24;;;;;;;6.15;4.05;;;9.30;99.90;;;;;;5054654;28;20041;-82
2023/04/24 06:27:50;;;;;;;5.03;3.30;;;9.30;99.90;;;;;;5059850;28;20682;-83
2023/04/24 06:30:15;;;;;;;3.35;2.78;;;9.30;99.90;;;;;;5054502;28;20032;-77
2023/04/24 06:32:41;;;;;;;2.80;2.50;;;9.40;99.90;;;;;;5060181;28;20032;-83
2023/04/24 06:35:09;;;;;;;2.65;2.10;;;9.40;99.90;;;;;;5038593;28;20114;-81
2023/04/24 06:37:35;;;;;;;2.30;2.10;;;9.40;99.90;;;;;;5041968;28;20043;-81
2023/04/24 06:40:01;;;;;;;2.40;2.10;;;9.50;99.90;;;;;;5045603;28;20051;-82
2023/04/24 06:42:26;;;;;;;2.30;2.10;;;9.40;99.90;;;;;;5053259;28;20041;-82
2023/04/24 06:44:52;;;;;;;2.60;2.40;;;9.50;99.90;;;;;;5043371;28;20039;-82
2023/04/24 06:47:18;;;;;;;3.30;1.88;;;9.50;99.90;;;;;;5047836;28;20515;-82
2023/04/24 06:49:44;;;;;;;2.30;1.60;;;9.50;99.90;;;;;;5042082;28;20037;-81
2023/04/24 06:52:09;;;;;;;1.98;1.77;;;9.50;99.90;;;;;;5053321;28;20431;-80
2023/04/24 06:54:35;;;;;;;2.22;1.67;;;9.50;99.90;;;;;;5050795;28;20538;-80
2023/04/24 06:57:02;;;;;;;1.40;1.30;;;9.40;99.90;;;;;;5059552;28;20044;-82
2023/04/24 06:59:28;;;;;;;2.13;1.10;;;9.40;99.90;;;;;;5051884;28;20056;-82
2023/04/24 07:01:54;;;;;;;2.22;1.58;;;9.50;99.90;;;;;;5037587;28;20119;-82
2023/04/24 07:04:20;;;;;;;1.70;1.42;;;9.40;99.90;;;;;;5065004;28;20040;-82
2023/04/24 07:06:48;;;;;;;4.63;2.30;;;9.50;99.90;;;;;;5070766;28;20085;-81
2023/04/24 07:09:15;;;;;;;1.83;1.65;;;9.50;99.90;;;;;;5058671;28;20782;-85
2023/04/24 07:11:41;;;;;;;2.70;2.38;;;9.60;99.90;;;;;;5045325;28;20086;-78
2023/04/24 07:14:07;;;;;;;3.60;2.80;;;9.80;99.90;;;;;;5063240;28;20448;-80
2023/04/24 07:16:33;;;;;;;3.90;3.40;;;9.70;99.90;;;;;;5061015;28;20488;-82
2023/04/24 07:18:58;;;;;;;5.45;3.22;;;9.80;99.90;;;;;;5050720;28;20043;-81
2023/04/24 07:21:25;;;;;;;4.13;3.70;;;9.80;99.90;;;;;;5053348;28;20169;-82
2023/04/24 07:23:51;;;;;;;6.47;3.97;;;9.80;99.90;;;;;;5045681;28;20039;-80
2023/04/24 07:26:16;;;;;;;3.83;3.35;;;9.90;99.90;;;;;;5059701;28;20036;-83
2023/04/24 07:28:42;;;;;;;4.38;3.40;;;9.90;99.90;;;;;;5067670;28;20440;-82
2023/04/24 07:31:08;;;;;;;6.05;3.90;;;9.90;99.90;;;;;;5064671;28;20036;-83
2023/04/24 07:33:35;;;;;;;4.22;3.60;;;9.80;99.90;;;;;;5059726;28;20110;-82
2023/04/24 07:36:02;;;;;;;5.80;3.92;;;9.90;99.90;;;;;;5063606;28;20028;-82
2023/04/24 07:38:29;;;;;;;6.25;4.80;;;9.90;99.90;;;;;;5069598;28;20820;-83
2023/04/24 07:40:55;;;;;;;6.30;4.60;;;9.90;99.90;;;;;;5059784;28;20122;-82
2023/04/24 07:43:21;;;;;;;6.05;5.35;;;10.20;99.90;;;;;;5057912;28;20127;-83
2023/04/24 07:45:47;;;;;;;6.20;5.43;;;9.90;99.90;;;;;;5062244;28;20115;-83
2023/04/24 07:48:16;;;;;;;7.05;5.75;;;9.90;99.90;;;;;;5054698;28;20032;-82
2023/04/24 07:50:41;;;;;;;5.60;5.07;;;9.90;99.90;;;;;;5051412;28;20074;-83
2023/04/24 07:53:07;;;;;;;6.40;5.75;;;9.90;99.90;;;;;;5048526;28;20477;-83
2023/04/24 07:55:33;;;;;;;7.57;5.40;;;9.90;99.90;;;;;;5057286;28;20111;-82
2023/04/24 07:57:58;;;;;;;8.27;5.63;;;9.90;99.90;;;;;;5056452;28;20041;-83
2023/04/24 08:00:24;;;;;;;7.55;5.30;;;9.90;99.90;;;;;;5061502;28;20451;-83
2023/04/24 08:02:49;;;;;;;8.23;5.32;;;10.00;99.90;;;;;;5045484;28;20076;-83
2023/04/24 08:05:15;;;;;;;10.48;6.10;;;9.90;99.90;;;;;;5059372;28;20049;-82
2023/04/24 08:07:42;;;;;;;8.18;5.88;;;9.90;99.90;;;;;;5069240;28;20123;-83
2023/04/24 08:10:10;;;;;;;7.45;5.60;;;9.90;99.90;;;;;;5069881;28;20117;-82
2023/04/24 08:12:36;;;;;;;7.00;6.13;;;9.90;99.90;;;;;;5042237;28;20128;-83
2023/04/24 08:15:02;;;;;;;5.90;4.45;;;9.90;99.90;;;;;;5056830;28;20119;-83
2023/04/24 08:17:28;;;;;;;5.90;4.45;;;10.00;99.90;;;;;;5045025;28;20122;-83
2023/04/24 08:20:00;;;;;;;4.47;3.92;;;10.00;99.90;;;;;;5045033;28;20041;-82
2023/04/24 08:22:29;;;;;;;3.90;3.37;;;10.30;99.90;;;;;;5059822;28;20040;-83
2023/04/24 08:24:56;;;;;;;3.60;3.05;;;10.10;99.90;;;;;;5041293;28;20067;-83
2023/04/24 08:27:22;;;;;;;3.60;3.10;;;10.10;99.90;;;;;;5057770;28;20527;-82
2023/04/24 08:29:50;;;;;;;4.07;3.63;;;10.00;99.90;;;;;;5064380;28;20039;-82
2023/04/24 08:32:15;;;;;;;4.15;3.40;;;10.00;99.90;;;;;;5057122;28;20036;-83
2023/04/24 08:34:41;;;;;;;3.58;3.08;;;10.00;99.90;;;;;;5057680;28;20119;-83
2023/04/24 08:37:06;;;;;;;4.68;3.28;;;10.10;99.90;;;;;;5059141;28;20496;-83
2023/04/24 08:39:32;;;;;;;5.05;3.40;;;10.10;99.90;;;;;;5059993;28;20109;-82
2023/04/24 08:42:05;;;;;;;4.47;3.38;;;10.10;99.90;;;;;;5061890;28;20028;-82
2023/04/24 08:44:32;;;;;;;7.18;4.13;;;10.10;99.90;;;;;;5067844;28;20111;-83
2023/04/24 08:46:58;;;;;;;7.68;4.10;;;10.10;99.90;;;;;;5049906;28;20580;-83
2023/04/24 08:49:25;;;;;;;8.73;5.10;;;10.10;99.90;;;;;;5061274;28;20036;-82
2023/04/24 08:51:52;;;;;;;10.82;6.47;;;10.00;99.90;;;;;;5040086;28;20107;-82
2023/04/24 08:54:18;;;;;;;11.20;6.88;;;10.00;99.90;;;;;;5051900;28;20429;-82
2023/04/24 08:56:46;;;;;;;11.18;7.38;;;10.00;99.90;;;;;;5060512;28;20044;-82
2023/04/24 08:59:13;;;;;;;10.10;7.88;;;10.00;99.90;;;;;;5068411;28;20133;-79
2023/04/24 09:01:40;;;;;;;10.98;8.60;;;10.10;99.90;;;;;;5060123;28;20032;-79
2023/04/24 09:04:09;;;;;;;13.73;9.00;;;10.10;99.90;;;;;;5066071;28;20028;-84
2023/04/24 09:06:35;;;;;;;14.25;9.77;;;10.10;99.90;;;;;;5060912;28;20115;-81
2023/04/24 09:09:03;;;;;;;14.38;9.98;;;10.10;99.90;;;;;;5065299;28;20135;-80
2023/04/24 09:11:31;;;;;;;14.57;9.73;;;10.00;99.90;;;;;;5070395;28;20078;-83
2023/04/24 09:13:57;;;;;;;16.25;10.20;;;10.00;99.90;;;;;;5046867;28;20041;-87
2023/04/24 09:16:25;;;;;;;14.70;10.63;;;9.90;99.90;;;;;;5043128;28;20059;-79
2023/04/24 09:18:51;;;;;;;14.45;9.68;;;10.00;99.90;;;;;;5057955;28;20044;-84
2023/04/24 09:21:16;;;;;;;13.35;10.25;;;10.00;99.90;;;;;;5066804;28;20047;-84
2023/04/24 09:23:42;;;;;;;16.23;11.15;;;9.90;99.90;;;;;;5060605;28;20044;-82
2023/04/24 09:26:09;;;;;;;15.88;12.00;;;9.80;99.90;;;;;;5062815;28;20040;-82
2023/04/24 09:28:37;;;;;;;23.20;13.82;;;9.80;99.90;;;;;;5052489;28;20072;-80
2023/04/24 09:31:12;;;;;;;18.65;14.35;;;9.80;99.90;;;;;;5042428;28;20547;-82
2023/04/24 09:33:38;;;;;;;19.27;14.45;;;9.60;99.90;;;;;;5050831;28;20066;-82
2023/04/24 09:36:04;;;;;;;23.27;15.60;;;9.60;99.90;;;;;;5047104;28;20071;-82
2023/04/24 09:38:37;;;;;;;20.30;14.55;;;9.60;99.90;;;;;;5038458;28;20683;-82
2023/04/24 09:41:05;;;;;;;24.60;15.77;;;9.60;99.90;;;;;;5060254;28;20365;-82
2023/04/24 09:43:31;;;;;;;20.08;13.55;;;9.60;99.90;;;;;;5040997;28;20036;-84
2023/04/24 09:45:58;;;;;;;20.20;13.68;;;9.60;99.90;;;;;;5052635;28;20047;-83
2023/04/24 09:48:34;;;;;;;19.45;14.13;;;9.70;99.90;;;;;;5051346;28;20048;-82
2023/04/24 09:51:10;;;;;;;17.73;12.75;;;9.70;99.90;;;;;;5059008;28;20044;-83
2023/04/24 09:53:36;;;;;;;20.67;13.63;;;9.70;99.90;;;;;;5050181;28;20483;-81
2023/04/24 09:56:12;;;;;;;18.55;13.27;;;9.60;99.90;;;;;;5068116;28;20033;-83
2023/04/24 09:58:37;;;;;;;19.60;13.38;;;9.60;99.90;;;;;;5051986;28;20102;-82
2023/04/24 10:01:03;;;;;;;17.98;13.85;;;9.70;99.90;;;;;;5071165;28;20048;-83
2023/04/24 10:03:34;;;;;;;19.13;14.20;;;9.70;99.90;;;;;;5051173;28;20040;-82
2023/04/24 10:06:00;;;;;;;18.83;14.13;;;9.60;99.90;;;;;;5063631;28;20036;-82
2023/04/24 10:08:26;;;;;;;16.02;12.50;;;9.50;99.90;;;;;;5051980;28;20040;-82
2023/04/24 10:10:52;;;;;;;18.23;12.55;;;9.50;99.90;;;;;;5066675;28;20613;-83
2023/04/24 10:13:18;;;;;;;18.67;12.55;;;9.50;99.90;;;;;;5051634;28;20438;-82
2023/04/24 10:15:44;;;;;;;19.50;12.65;;;9.50;99.90;;;;;;5069673;28;20511;-83
2023/04/24 10:18:10;;;;;;;18.38;12.60;;;9.50;99.90;;;;;;5046912;28;20039;-82
2023/04/24 10:20:38;;;;;;;15.50;11.48;;;9.50;99.90;;;;;;5054902;28;20037;-82
2023/04/24 10:23:04;;;;;;;21.95;13.10;;;9.60;99.90;;;;;;5075062;28;20058;-82
2023/04/24 10:25:31;;;;;;;19.40;11.75;;;9.70;99.90;;;;;;5063866;28;20046;-83
2023/04/24 10:27:59;;;;;;;14.57;10.50;;;9.80;99.90;;;;;;5067835;28;20040;-83
2023/04/24 10:30:35;;;;;;;14.02;10.18;;;9.80;99.90;;;;;;5058227;28;20102;-82
2023/04/24 10:33:05;;;;;;;13.93;9.68;;;9.90;99.90;;;;;;5068878;28;20039;-83
2023/04/24 10:35:45;;;;;;;15.77;9.10;;;9.90;99.90;;;;;;5051452;28;20042;-83
2023/04/24 10:38:18;;;;;;;14.15;8.52;;;9.90;99.90;;;;;;5059601;28;20036;-83
2023/04/24 10:40:44;;;;;;;13.35;8.25;;;9.80;99.90;;;;;;5060373;28;20040;-82
2023/04/24 10:43:11;;;;;;;13.20;7.90;;;9.70;99.90;;;;;;5052274;28;20074;-81
2023/04/24 10:45:37;;;;;;;11.68;7.50;;;9.70;99.90;;;;;;5065690;28;20048;-82
2023/04/24 10:48:10;;;;;;;11.98;6.93;;;9.50;99.90;;;;;;5067818;28;20068;-82
2023/04/24 10:50:53;;;;;;;10.13;7.25;;;9.40;99.90;;;;;;5070479;28;20064;-82
2023/04/24 10:53:26;;;;;;;11.90;6.90;;;9.30;99.90;;;;;;5059893;28;20560;-82
2023/04/24 10:56:07;;;;;;;12.32;5.75;;;9.30;99.90;;;;;;5076257;28;20042;-82
2023/04/24 10:58:53;;;;;;;9.55;5.50;;;9.20;99.90;;;;;;5077879;28;20033;-82
2023/04/24 11:01:26;;;;;;;11.88;5.30;;;9.20;99.90;;;;;;5046378;28;20063;-82
2023/04/24 11:03:56;;;;;;;9.10;4.57;;;9.20;99.90;;;;;;5079001;28;20032;-82
2023/04/24 11:06:36;;;;;;;10.95;5.07;;;9.30;99.90;;;;;;5055914;28;20040;-82
2023/04/24 11:09:07;;;;;;;8.77;4.53;;;9.30;99.90;;;;;;5050236;28;20033;-81
2023/04/24 11:11:33;;;;;;;9.18;4.57;;;9.30;99.90;;;;;;5071578;28;20040;-82
2023/04/24 11:13:59;;;;;;;10.40;4.30;;;9.40;99.90;;;;;;5067118;28;20088;-82
2023/04/24 11:16:38;;;;;;;11.68;4.40;;;9.50;99.90;;;;;;5072512;28;20067;-83
2023/04/24 11:19:18;;;;;;;11.50;4.80;;;9.60;99.90;;;;;;5050376;28;20072;-83
2023/04/24 11:21:46;;;;;;;5.38;3.95;;;9.40;99.90;;;;;;5068391;28;20123;-83
2023/04/24 11:24:33;;;;;;;8.55;4.18;;;9.60;99.90;;;;;;5064666;28;20131;-83
2023/04/24 11:27:05;;;;;;;7.35;4.03;;;9.50;99.90;;;;;;5060409;28;20554;-82
2023/04/24 11:29:47;;;;;;;10.57;3.90;;;9.50;99.90;;;;;;5065589;28;20528;-82
2023/04/24 11:32:19;;;;;;;8.90;3.72;;;9.40;99.90;;;;;;5058800;28;20048;-82
2023/04/24 11:34:49;;;;;;;6.47;3.40;;;9.40;99.90;;;;;;5062779;28;20059;-82
2023/04/24 11:37:15;;;;;;;7.53;3.20;;;9.40;99.90;;;;;;5056888;28;20036;-82
2023/04/24 11:39:41;;;;;;;6.03;3.03;;;9.50;99.90;;;;;;5066394;28;20043;-82
2023/04/24 11:42:08;;;;;;;7.70;3.50;;;9.50;99.90;;;;;;5068430;28;20046;-82
2023/04/24 11:44:37;;;;;;;10.15;3.50;;;9.60;99.90;;;;;;5080479;28;20469;-82
2023/04/24 11:47:09;;;;;;;8.90;3.90;;;9.60;99.90;;;;;;5067266;28;20074;-83
2023/04/24 11:49:38;;;;;;;8.00;3.60;;;9.80;99.90;;;;;;5072965;28;20032;-82
2023/04/24 11:52:04;;;;;;;6.88;2.97;;;9.70;99.90;;;;;;5062515;28;20770;-82
2023/04/24 11:54:30;;;;;;;8.02;3.35;;;9.70;99.90;;;;;;5058653;28;20032;-82
2023/04/24 11:56:57;;;;;;;5.95;3.03;;;9.80;99.90;;;;;;5071516;28;20089;-82
2023/04/24 11:59:23;;;;;;;7.05;2.90;;;9.90;99.90;;;;;;5049209;28;20046;-82
2023/04/24 12:01:50;;;;;;;9.20;2.90;;;9.90;99.90;;;;;;5056575;28;20037;-82
2023/04/24 12:04:17;;;;;;;5.70;2.92;;;10.00;99.90;;;;;;5074453;28;20050;-81
2023/04/24 12:07:02;;;;;;;6.00;2.65;;;10.00;99.90;;;;;;5064363;28;20366;-82
2023/04/24 12:09:28;;;;;;;9.48;2.80;;;10.10;99.90;;;;;;5047423;28;20502;-83
2023/04/24 12:11:58;;;;;;;6.80;3.08;;;10.10;99.90;;;;;;5074307;28;20050;-83
2023/04/24 12:14:24;;;;;;;8.10;2.88;;;10.10;99.90;;;;;;5043359;28;20508;-83
2023/04/24 12:16:52;;;;;;;7.15;3.22;;;10.10;99.90;;;;;;5067462;28;20032;-83
2023/04/24 12:19:22;;;;;;;4.65;2.50;;;10.10;99.90;;;;;;5069059;28;20043;-83
2023/04/24 12:22:05;;;;;;;4.65;2.50;;;10.00;99.90;;;;;;5064953;28;20448;-82
2023/04/24 12:24:31;;;;;;;6.50;2.15;;;10.00;99.90;;;;;;5053173;28;20417;-83
2023/04/24 12:26:57;;;;;;;5.15;2.42;;;9.80;99.90;;;;;;5069256;28;20512;-84
2023/04/24 12:29:24;;;;;;;6.55;2.70;;;9.70;99.90;;;;;;5056478;28;20032;-81
2023/04/24 12:31:51;;;;;;;5.47;3.17;;;9.70;99.90;;;;;;5049807;28;20028;-81
2023/04/24 12:34:20;;;;;;;7.45;2.78;;;9.60;99.90;;;;;;5052014;28;20043;-82
2023/04/24 12:36:47;;;;;;;4.45;2.33;;;9.60;99.90;;;;;;5059972;28;20037;-82
2023/04/24 12:39:19;;;;;;;4.65;2.60;;;9.70;99.90;;;;;;5060828;28;20447;-81
2023/04/24 12:41:58;;;;;;;8.13;3.10;;;9.70;99.90;;;;;;5062328;28;20043;-82
2023/04/24 12:44:31;;;;;;;9.82;3.00;;;9.60;99.90;;;;;;5056813;28;20033;-83
2023/04/24 12:46:57;;;;;;;4.80;2.92;;;9.70;99.90;;;;;;5045433;28;20028;-81
2023/04/24 12:49:23;;;;;;;9.80;2.83;;;9.70;99.90;;;;;;5064192;28;20600;-87